createdAt,value
2018-09-13T00:00:08.685Z,20.70
2018-09-13T00:02:36.999Z,20.70
2018-09-13T00:05:05.460Z,20.60
2018-09-13T00:07:33.847Z,20.60
2018-09-13T00:10:02.131Z,20.50
2018-09-13T00:12:30.464Z,20.40
2018-09-13T00:14:58.750Z,20.30
2018-09-13T00:17:27.080Z,20.20
2018-09-13T00:19:55.356Z,20.10
2018-09-13T00:22:23.671Z,20.00
2018-09-13T00:24:51.963Z,20.00
2018-09-13T00:27:20.315Z,20.00
2018-09-13T00:29:48.627Z,19.90
2018-09-13T00:32:16.936Z,19.90
2018-09-13T00:34:45.280Z,19.90
2018-09-13T00:37:13.596Z,19.90
2018-09-13T00:39:41.959Z,19.80
2018-09-13T00:42:10.259Z,19.80
2018-09-13T00:44:38.583Z,19.90
2018-09-13T00:47:12.172Z,19.70
2018-09-13T00:49:41.007Z,19.70
2018-09-13T00:52:09.488Z,19.60
2018-09-13T00:54:37.827Z,19.60
2018-09-13T00:57:06.236Z,19.60
2018-09-13T00:59:34.564Z,19.50
2018-09-13T01:02:02.959Z,19.60
2018-09-13T01:04:31.355Z,19.60
2018-09-13T01:06:59.678Z,19.50
2018-09-13T01:09:27.979Z,19.50
2018-09-13T01:11:56.315Z,19.40
2018-09-13T01:14:24.675Z,19.40
2018-09-13T01:16:52.991Z,19.40
2018-09-13T01:19:21.267Z,19.40
2018-09-13T01:21:49.592Z,19.40
2018-09-13T01:24:17.904Z,19.40
2018-09-13T01:26:46.385Z,19.30
2018-09-13T01:29:14.705Z,19.30
2018-09-13T01:31:43.019Z,19.30
2018-09-13T01:34:11.363Z,19.30
2018-09-13T01:36:39.684Z,19.30
2018-09-13T01:39:09.000Z,19.30
2018-09-13T01:41:37.573Z,19.40
2018-09-13T01:44:06.115Z,19.30
2018-09-13T01:46:34.414Z,19.40
2018-09-13T01:49:02.726Z,19.30
2018-09-13T01:51:31.028Z,19.30
2018-09-13T01:53:59.349Z,19.30
2018-09-13T01:56:27.636Z,19.30
2018-09-13T01:58:55.984Z,19.20
2018-09-13T02:01:24.312Z,19.20
2018-09-13T02:03:52.764Z,19.20
2018-09-13T02:06:21.042Z,19.10
2018-09-13T02:08:49.377Z,19.10
2018-09-13T02:11:17.843Z,19.10
2018-09-13T02:13:46.164Z,19.10
2018-09-13T02:16:14.624Z,19.10
2018-09-13T02:18:42.931Z,19.20
2018-09-13T02:21:11.232Z,19.20
2018-09-13T02:23:39.519Z,19.20
2018-09-13T02:26:07.811Z,19.10
2018-09-13T02:28:36.276Z,19.10
2018-09-13T02:31:04.568Z,19.00
2018-09-13T02:33:32.903Z,18.90
2018-09-13T02:36:01.208Z,18.90
2018-09-13T02:38:29.656Z,18.80
2018-09-13T02:40:57.996Z,18.70
2018-09-13T02:43:26.316Z,18.50
2018-09-13T02:45:54.624Z,18.60
2018-09-13T02:48:22.963Z,18.60
2018-09-13T02:50:51.248Z,18.60
2018-09-13T02:53:19.810Z,18.50
2018-09-13T02:55:48.103Z,18.50
2018-09-13T02:58:16.421Z,18.60
2018-09-13T03:00:44.916Z,18.60
2018-09-13T03:03:13.234Z,18.60
2018-09-13T03:05:41.532Z,18.70
2018-09-13T03:08:09.906Z,18.60
2018-09-13T03:10:38.160Z,18.60
2018-09-13T03:13:06.527Z,18.70
2018-09-13T03:15:34.938Z,18.70
2018-09-13T03:18:03.242Z,18.60
2018-09-13T03:20:31.570Z,18.60
2018-09-13T03:22:59.916Z,18.60
2018-09-13T03:25:28.232Z,18.60
2018-09-13T03:27:56.588Z,18.50
2018-09-13T03:30:24.924Z,18.50
2018-09-13T03:32:53.240Z,18.40
2018-09-13T03:35:21.534Z,18.50
2018-09-13T03:37:49.852Z,18.50
2018-09-13T03:40:18.147Z,18.50
2018-09-13T03:42:46.463Z,18.40
2018-09-13T03:45:14.756Z,18.40
2018-09-13T03:47:43.191Z,18.50
2018-09-13T03:50:11.495Z,18.50
2018-09-13T03:52:39.811Z,18.40
2018-09-13T03:55:08.083Z,18.40
2018-09-13T03:57:36.390Z,18.40
2018-09-13T04:00:04.873Z,18.30
2018-09-13T04:02:33.204Z,18.30
2018-09-13T04:05:01.482Z,18.20
2018-09-13T04:07:29.791Z,18.10
2018-09-13T04:09:58.112Z,18.20
2018-09-13T04:12:26.413Z,18.20
2018-09-13T04:14:54.699Z,18.10
2018-09-13T04:17:22.996Z,18.10
2018-09-13T04:19:51.299Z,18.10
2018-09-13T04:22:19.635Z,18.10
2018-09-13T04:24:47.949Z,18.20
2018-09-13T04:27:16.239Z,18.00
2018-09-13T04:29:44.541Z,18.10
2018-09-13T04:32:12.848Z,18.00
2018-09-13T04:34:41.156Z,18.10
2018-09-13T04:37:09.739Z,18.00
2018-09-13T04:39:38.082Z,18.10
2018-09-13T04:42:06.384Z,18.00
2018-09-13T04:44:34.700Z,17.90
2018-09-13T04:47:03.003Z,17.70
2018-09-13T04:49:31.293Z,17.70
2018-09-13T04:51:59.565Z,17.70
2018-09-13T04:54:27.881Z,17.80
2018-09-13T04:56:56.188Z,17.80
2018-09-13T04:59:24.494Z,17.90
2018-09-13T05:01:52.816Z,17.90
2018-09-13T05:04:21.143Z,18.00
2018-09-13T05:06:49.415Z,18.00
2018-09-13T05:09:17.779Z,18.00
2018-09-13T05:11:46.079Z,18.00
2018-09-13T05:14:14.388Z,18.00
2018-09-13T05:16:42.683Z,18.00
2018-09-13T05:19:10.995Z,18.00
2018-09-13T05:21:39.283Z,18.00
2018-09-13T05:24:07.602Z,18.00
2018-09-13T05:26:36.942Z,18.00
2018-09-13T05:29:05.562Z,18.00
2018-09-13T05:31:33.936Z,18.00
2018-09-13T05:34:02.321Z,18.00
2018-09-13T05:36:30.677Z,18.00
2018-09-13T05:38:59.144Z,18.00
2018-09-13T05:41:27.506Z,18.00
2018-09-13T05:43:55.983Z,18.00
2018-09-13T05:46:24.360Z,18.00
2018-09-13T05:48:52.860Z,18.00
2018-09-13T05:51:21.222Z,18.00
2018-09-13T05:53:49.684Z,18.00
2018-09-13T05:56:18.003Z,18.00
2018-09-13T05:58:46.552Z,18.00
2018-09-13T06:01:14.893Z,18.00
2018-09-13T06:03:43.231Z,18.00
2018-09-13T06:06:12.708Z,18.00
2018-09-13T06:08:41.475Z,18.00
2018-09-13T06:11:09.965Z,18.00
2018-09-13T06:13:38.959Z,18.00
2018-09-13T06:16:07.427Z,18.00
2018-09-13T06:18:35.806Z,18.00
2018-09-13T06:21:04.164Z,18.00
2018-09-13T06:23:32.501Z,18.00
2018-09-13T06:26:01.900Z,18.10
2018-09-13T06:28:30.250Z,18.10
2018-09-13T06:30:58.659Z,18.10
2018-09-13T06:33:27.694Z,18.10
2018-09-13T06:35:56.074Z,18.10
2018-09-13T06:38:25.482Z,18.10
2018-09-13T06:40:53.804Z,18.10
2018-09-13T06:43:22.137Z,18.10
2018-09-13T06:45:50.628Z,18.20
2018-09-13T06:48:19.025Z,18.20
2018-09-13T06:50:48.447Z,18.20
2018-09-13T06:53:17.562Z,18.20
2018-09-13T06:55:46.308Z,18.20
2018-09-13T06:58:14.674Z,18.20
2018-09-13T07:00:54.479Z,18.20
2018-09-13T07:03:23.740Z,18.30
2018-09-13T07:05:52.866Z,18.30
2018-09-13T07:08:21.953Z,18.30
2018-09-13T07:10:50.552Z,18.30
2018-09-13T07:13:18.982Z,18.40
2018-09-13T07:15:47.339Z,18.40
2018-09-13T07:18:15.723Z,18.40
2018-09-13T07:20:44.102Z,18.40
2018-09-13T07:23:12.464Z,18.40
2018-09-13T07:25:40.844Z,18.40
2018-09-13T07:28:09.197Z,18.50
2018-09-13T07:30:37.533Z,18.50
2018-09-13T07:33:06.187Z,18.50
2018-09-13T07:35:34.572Z,18.50
2018-09-13T07:38:02.960Z,18.60
2018-09-13T07:40:31.320Z,18.60
2018-09-13T07:42:59.761Z,18.70
2018-09-13T07:45:28.076Z,18.90
2018-09-13T07:47:57.028Z,19.00
2018-09-13T07:50:25.397Z,19.00
2018-09-13T07:52:54.012Z,19.00
2018-09-13T07:55:22.361Z,19.00
2018-09-13T07:57:51.140Z,19.10
2018-09-13T08:00:19.600Z,19.10
2018-09-13T08:02:47.952Z,19.00
2018-09-13T08:05:16.440Z,19.10
2018-09-13T08:07:44.781Z,19.00
2018-09-13T08:10:13.122Z,18.90
2018-09-13T08:12:42.376Z,18.90
2018-09-13T08:15:11.340Z,19.00
2018-09-13T08:17:39.726Z,18.90
2018-09-13T08:20:08.138Z,19.00
2018-09-13T08:22:36.475Z,18.90
2018-09-13T08:25:04.997Z,18.80
2018-09-13T08:27:33.396Z,18.80
2018-09-13T08:30:01.737Z,18.70
2018-09-13T08:32:30.082Z,18.80
2018-09-13T08:34:58.616Z,18.80
2018-09-13T08:37:26.813Z,18.70
2018-09-13T08:39:55.236Z,18.60
2018-09-13T08:42:23.990Z,18.70
2018-09-13T08:44:52.391Z,18.60
2018-09-13T08:47:20.752Z,18.60
2018-09-13T08:49:49.064Z,18.60
2018-09-13T08:52:17.396Z,18.60
2018-09-13T08:54:45.767Z,18.60
2018-09-13T08:57:14.780Z,18.60
2018-09-13T08:59:43.363Z,18.70
2018-09-13T09:02:11.724Z,18.60
2018-09-13T09:04:40.088Z,18.70
2018-09-13T09:07:08.481Z,18.80
2018-09-13T09:09:37.568Z,18.80
2018-09-13T09:12:06.700Z,19.00
2018-09-13T09:14:35.016Z,19.00
2018-09-13T09:17:03.412Z,19.00
2018-09-13T09:19:31.741Z,18.90
2018-09-13T09:22:00.940Z,19.10
2018-09-13T09:24:29.280Z,19.10
2018-09-13T09:26:57.832Z,19.20
2018-09-13T09:29:26.269Z,19.30
2018-09-13T09:31:54.523Z,19.30
2018-09-13T09:34:23.136Z,19.30
2018-09-13T09:36:51.640Z,19.30
2018-09-13T09:39:20.052Z,19.30
2018-09-13T09:41:49.000Z,19.40
2018-09-13T09:44:17.397Z,19.40
2018-09-13T09:46:45.715Z,19.50
2018-09-13T09:49:14.032Z,19.60
2018-09-13T09:51:42.344Z,19.70
2018-09-13T09:54:10.636Z,19.70
2018-09-13T09:56:38.955Z,19.80
2018-09-13T09:59:07.263Z,19.80
2018-09-13T10:01:39.810Z,19.90
2018-09-13T10:04:08.107Z,20.00
2018-09-13T10:06:37.463Z,20.00
2018-09-13T10:09:07.980Z,20.00
2018-09-13T10:11:36.504Z,20.00
2018-09-13T10:14:04.853Z,20.10
2018-09-13T10:16:38.545Z,20.10
2018-09-13T10:19:12.291Z,20.20
2018-09-13T10:21:47.056Z,20.20
2018-09-13T10:24:20.744Z,20.20
2018-09-13T10:26:54.610Z,20.30
2018-09-13T10:29:28.314Z,20.20
2018-09-13T10:32:02.816Z,20.20
2018-09-13T10:34:36.408Z,20.30
2018-09-13T10:37:10.242Z,20.30
2018-09-13T10:39:43.944Z,20.40
2018-09-13T10:42:17.687Z,20.40
2018-09-13T10:44:51.707Z,20.40
2018-09-13T10:47:25.551Z,20.40
2018-09-13T10:49:59.298Z,20.50
2018-09-13T10:52:30.771Z,20.60
2018-09-13T10:54:59.095Z,20.60
2018-09-13T10:57:32.805Z,20.70
2018-09-13T11:00:01.165Z,20.80
2018-09-13T11:02:29.604Z,20.80
2018-09-13T11:04:57.932Z,20.70
2018-09-13T11:07:26.325Z,20.80
2018-09-13T11:09:54.643Z,20.90
2018-09-13T11:12:31.399Z,20.90
2018-09-13T11:15:04.021Z,21.00
2018-09-13T11:17:32.571Z,20.90
2018-09-13T11:20:01.178Z,21.00
2018-09-13T11:22:29.545Z,21.20
2018-09-13T11:24:57.899Z,21.10
2018-09-13T11:27:26.251Z,21.20
2018-09-13T11:29:54.595Z,21.20
2018-09-13T11:32:22.945Z,21.40
2018-09-13T11:34:51.233Z,21.50
2018-09-13T11:37:19.592Z,21.50
2018-09-13T11:39:47.959Z,21.60
2018-09-13T11:42:16.312Z,21.60
2018-09-13T11:44:44.640Z,21.60
2018-09-13T11:47:12.959Z,21.30
2018-09-13T11:49:41.280Z,21.20
2018-09-13T11:52:09.605Z,21.20
2018-09-13T11:54:37.941Z,21.20
2018-09-13T11:57:06.910Z,21.10
2018-09-13T11:59:35.268Z,21.10
2018-09-13T12:02:04.775Z,20.90
2018-09-13T12:04:33.080Z,21.00
2018-09-13T12:07:01.404Z,21.10
2018-09-13T12:09:29.749Z,20.90
2018-09-13T12:11:58.052Z,20.90
2018-09-13T12:14:26.385Z,21.10
2018-09-13T12:16:54.719Z,21.00
2018-09-13T12:19:23.056Z,20.60
2018-09-13T12:21:51.416Z,20.80
2018-09-13T12:24:20.767Z,20.80
2018-09-13T12:26:49.158Z,20.90
2018-09-13T12:29:17.545Z,20.90
2018-09-13T12:31:45.909Z,21.20
2018-09-13T12:34:14.277Z,21.30
2018-09-13T12:36:42.617Z,21.20
2018-09-13T12:39:12.204Z,21.00
2018-09-13T12:41:41.272Z,21.20
2018-09-13T12:44:10.064Z,21.30
2018-09-13T12:46:38.409Z,21.30
2018-09-13T12:49:06.802Z,21.30
2018-09-13T12:51:35.203Z,21.40
2018-09-13T12:54:03.546Z,21.10
2018-09-13T12:56:32.056Z,21.10
2018-09-13T12:59:00.392Z,21.10
2018-09-13T13:01:28.756Z,21.00
2018-09-13T13:03:57.204Z,20.70
2018-09-13T13:06:25.612Z,20.70
2018-09-13T13:08:54.350Z,20.80
2018-09-13T13:11:23.057Z,20.80
2018-09-13T13:13:51.421Z,20.90
2018-09-13T13:16:19.832Z,21.00
2018-09-13T13:18:48.581Z,20.80
2018-09-13T13:21:16.940Z,20.90
2018-09-13T13:23:45.324Z,20.70
2018-09-13T13:26:13.667Z,20.60
2018-09-13T13:28:42.020Z,20.70
2018-09-13T13:31:10.325Z,20.80
2018-09-13T13:33:38.648Z,20.90
2018-09-13T13:36:06.999Z,21.00
2018-09-13T13:38:35.304Z,21.10
2018-09-13T13:41:03.598Z,21.00
2018-09-13T13:43:31.999Z,20.90
2018-09-13T13:46:00.268Z,20.90
2018-09-13T13:48:28.765Z,21.00
2018-09-13T13:50:57.061Z,20.70
2018-09-13T13:53:25.362Z,20.80
2018-09-13T13:55:53.668Z,20.80
2018-09-13T13:58:22.054Z,21.00
2018-09-13T14:00:50.568Z,21.10
2018-09-13T14:03:18.917Z,21.00
2018-09-13T14:05:48.319Z,21.20
2018-09-13T14:08:16.675Z,21.20
2018-09-13T14:10:45.563Z,21.10
2018-09-13T14:13:13.900Z,21.00
2018-09-13T14:15:42.517Z,21.10
2018-09-13T14:20:55.117Z,21.20
2018-09-13T14:23:23.469Z,20.90
2018-09-13T14:25:51.942Z,21.00
2018-09-13T14:28:20.365Z,20.90
2018-09-13T14:30:48.811Z,21.00
2018-09-13T14:33:17.477Z,21.00
2018-09-13T14:35:45.839Z,20.90
2018-09-13T14:38:14.134Z,21.10
2018-09-13T14:40:42.472Z,21.20
2018-09-13T14:43:10.792Z,21.30
2018-09-13T14:45:39.138Z,21.20
2018-09-13T14:48:07.500Z,21.30
2018-09-13T14:50:35.863Z,21.20
2018-09-13T14:53:04.206Z,21.20
2018-09-13T14:55:32.568Z,21.30
2018-09-13T14:58:00.892Z,21.20
2018-09-13T15:00:29.224Z,20.90
2018-09-13T15:02:57.541Z,21.00
2018-09-13T15:05:25.933Z,20.80
2018-09-13T15:07:54.256Z,20.70
2018-09-13T15:10:22.634Z,20.90
2018-09-13T15:12:51.033Z,20.80
2018-09-13T15:15:19.291Z,20.70
2018-09-13T15:17:47.620Z,20.70
2018-09-13T15:20:15.968Z,20.60
2018-09-13T15:22:44.302Z,20.50
2018-09-13T15:25:12.746Z,20.40
2018-09-13T15:27:41.071Z,20.40
2018-09-13T15:30:09.439Z,20.30
2018-09-13T15:32:37.796Z,20.20
2018-09-13T15:35:06.152Z,20.40
2018-09-13T15:37:34.532Z,20.30
2018-09-13T15:40:02.932Z,20.50
2018-09-13T15:42:31.279Z,20.40
2018-09-13T15:44:59.624Z,20.40
2018-09-13T15:47:27.972Z,20.30
2018-09-13T15:49:56.526Z,20.40
2018-09-13T15:52:24.844Z,20.30
2018-09-13T15:54:53.180Z,20.40
2018-09-13T15:57:21.561Z,20.40
2018-09-13T15:59:49.881Z,20.40
2018-09-13T16:02:18.258Z,20.30
2018-09-13T16:04:52.976Z,20.40
2018-09-13T16:07:21.286Z,20.50
2018-09-13T16:09:49.627Z,20.40
2018-09-13T16:12:17.964Z,20.40
2018-09-13T16:14:46.365Z,20.20
2018-09-13T16:17:14.764Z,20.30
2018-09-13T16:19:43.181Z,20.40
2018-09-13T16:22:11.641Z,20.20
2018-09-13T16:24:40.014Z,20.20
2018-09-13T16:27:08.642Z,20.30
2018-09-13T16:29:37.001Z,20.30
2018-09-13T16:32:05.384Z,20.40
2018-09-13T16:34:34.074Z,20.50
2018-09-13T16:37:12.605Z,20.50
2018-09-13T16:39:46.394Z,20.50
2018-09-13T16:43:19.592Z,20.50
2018-09-13T16:45:48.147Z,20.50
2018-09-13T16:48:16.581Z,20.20
2018-09-13T16:50:44.930Z,20.30
2018-09-13T16:53:13.345Z,20.10
2018-09-13T16:55:41.754Z,20.10
2018-09-13T16:58:10.121Z,20.10
2018-09-13T17:00:38.477Z,20.20
2018-09-13T17:03:06.856Z,20.20
2018-09-13T17:05:35.241Z,20.30
2018-09-13T17:08:03.575Z,20.30
2018-09-13T17:10:31.940Z,20.30
2018-09-13T17:13:00.424Z,20.20
2018-09-13T17:15:28.804Z,20.10
2018-09-13T17:17:57.124Z,20.00
2018-09-13T17:20:25.480Z,20.10
2018-09-13T17:22:53.836Z,20.00
2018-09-13T17:25:22.202Z,20.00
2018-09-13T17:27:50.581Z,20.00
2018-09-13T17:30:18.906Z,20.00
2018-09-13T17:32:54.809Z,20.10
2018-09-13T17:35:23.707Z,20.10
2018-09-13T17:37:52.119Z,20.00
2018-09-13T17:40:20.510Z,19.90
2018-09-13T17:42:48.844Z,20.00
2018-09-13T17:45:17.354Z,19.90
2018-09-13T17:47:45.767Z,19.90
2018-09-13T17:50:14.301Z,19.90
2018-09-13T17:52:42.960Z,19.80
2018-09-13T17:55:11.493Z,19.80
2018-09-13T17:57:39.915Z,19.80
2018-09-13T18:00:10.767Z,19.70
2018-09-13T18:02:39.204Z,19.60
2018-09-13T18:05:07.952Z,19.50
2018-09-13T18:07:36.572Z,19.40
2018-09-13T18:10:05.501Z,19.30
2018-09-13T18:12:34.099Z,19.40
2018-09-13T18:15:02.673Z,19.40
2018-09-13T18:17:31.030Z,19.40
2018-09-13T18:20:00.701Z,19.30
2018-09-13T18:22:29.327Z,19.20
2018-09-13T18:24:57.836Z,19.30
2018-09-13T18:27:27.138Z,19.30
2018-09-13T18:29:55.984Z,19.30
2018-09-13T18:32:24.575Z,19.30
2018-09-13T18:34:53.116Z,19.20
2018-09-13T18:37:28.111Z,19.20
2018-09-13T18:39:56.980Z,19.20
2018-09-13T18:42:25.886Z,19.10
2018-09-13T18:44:54.517Z,19.00
2018-09-13T18:47:23.349Z,19.00
2018-09-13T18:49:52.219Z,18.90
2018-09-13T18:52:20.880Z,18.90
2018-09-13T18:54:49.336Z,18.90
2018-09-13T18:57:17.815Z,18.80
2018-09-13T18:59:47.106Z,18.80
2018-09-13T19:02:15.626Z,18.70
2018-09-13T19:04:44.196Z,18.80
2018-09-13T19:07:12.778Z,18.70
2018-09-13T19:09:41.128Z,18.70
2018-09-13T19:12:09.467Z,18.60
2018-09-13T19:14:37.817Z,18.60
2018-09-13T19:17:06.519Z,18.70
2018-09-13T19:19:34.813Z,18.60
2018-09-13T19:22:03.165Z,18.60
2018-09-13T19:24:31.593Z,18.60
2018-09-13T19:27:00.159Z,18.60
2018-09-13T19:29:28.535Z,18.60
2018-09-13T19:31:56.987Z,18.70
2018-09-13T19:34:25.325Z,18.70
2018-09-13T19:36:55.585Z,18.70
2018-09-13T19:39:24.079Z,18.60
2018-09-13T19:41:52.657Z,18.70
2018-09-13T19:44:21.217Z,18.70
2018-09-13T19:46:50.116Z,18.70
2018-09-13T19:49:18.445Z,18.70
2018-09-13T19:51:47.457Z,18.70
2018-09-13T19:54:18.182Z,18.70
2018-09-13T19:56:46.618Z,18.70
2018-09-13T19:59:14.963Z,18.60
2018-09-13T20:01:43.549Z,18.50
2018-09-13T20:04:12.921Z,18.50
2018-09-13T20:06:41.352Z,18.50
2018-09-13T20:09:11.201Z,18.40
2018-09-13T20:11:39.854Z,18.30
2018-09-13T20:14:08.494Z,18.30
2018-09-13T20:16:36.834Z,18.30
2018-09-13T20:19:05.337Z,18.30
2018-09-13T20:21:33.848Z,18.40
2018-09-13T20:24:02.212Z,18.30
2018-09-13T20:26:30.521Z,18.40
2018-09-13T20:28:58.910Z,18.40
2018-09-13T20:31:27.404Z,18.30
2018-09-13T20:33:56.015Z,18.30
2018-09-13T20:36:24.494Z,18.30
2018-09-13T20:38:52.785Z,18.20
2018-09-13T20:41:21.177Z,18.20
2018-09-13T20:43:49.478Z,18.20
2018-09-13T20:46:17.779Z,18.20
2018-09-13T20:48:46.130Z,18.30
2018-09-13T20:51:14.389Z,18.30
2018-09-13T20:53:42.632Z,18.30
2018-09-13T20:56:10.944Z,18.30
2018-09-13T20:58:40.251Z,18.30
2018-09-13T21:01:08.995Z,18.20
2018-09-13T21:03:37.306Z,18.10
2018-09-13T21:06:05.587Z,18.10
2018-09-13T21:08:33.989Z,18.10
2018-09-13T21:11:03.251Z,18.10
2018-09-13T21:13:31.634Z,18.20
2018-09-13T21:16:00.281Z,18.20
2018-09-13T21:18:28.661Z,18.20
2018-09-13T21:20:57.047Z,18.20
2018-09-13T21:23:25.359Z,18.20
2018-09-13T21:25:53.656Z,18.20
2018-09-13T21:28:21.999Z,18.20
2018-09-13T21:30:50.324Z,18.20
2018-09-13T21:33:18.683Z,18.10
2018-09-13T21:35:47.000Z,18.10
2018-09-13T21:38:15.328Z,18.20
2018-09-13T21:40:43.873Z,18.10
2018-09-13T21:43:12.342Z,18.10
2018-09-13T21:45:40.671Z,18.20
2018-09-13T21:48:09.323Z,18.20
2018-09-13T21:50:37.636Z,18.20
2018-09-13T21:53:05.963Z,18.20
2018-09-13T21:55:34.303Z,18.20
2018-09-13T21:58:02.646Z,18.20
2018-09-13T22:00:30.964Z,18.30
2018-09-13T22:02:59.274Z,18.30
2018-09-13T22:05:27.572Z,18.30
2018-09-13T22:07:55.909Z,18.30
2018-09-13T22:10:24.296Z,18.30
2018-09-13T22:12:52.733Z,18.30
2018-09-13T22:15:21.071Z,18.30
2018-09-13T22:17:49.403Z,18.30
2018-09-13T22:20:17.731Z,18.30
2018-09-13T22:22:46.043Z,18.30
2018-09-13T22:25:14.380Z,18.30
2018-09-13T22:27:42.723Z,18.30
2018-09-13T22:30:11.037Z,18.30
2018-09-13T22:32:39.363Z,18.20
2018-09-13T22:35:08.024Z,18.20
2018-09-13T22:37:37.359Z,18.20
2018-09-13T22:40:05.827Z,18.20
2018-09-13T22:42:34.472Z,18.20
2018-09-13T22:45:03.957Z,18.20
2018-09-13T22:47:32.766Z,18.20
2018-09-13T22:50:01.100Z,18.20
2018-09-13T22:52:29.440Z,18.20
2018-09-13T22:54:57.749Z,18.20
2018-09-13T22:57:26.072Z,18.20
2018-09-13T22:59:54.415Z,18.20
2018-09-13T23:02:22.716Z,18.10
2018-09-13T23:04:51.046Z,18.20
2018-09-13T23:07:19.461Z,18.10
2018-09-13T23:09:47.783Z,18.10
2018-09-13T23:12:16.100Z,18.10
2018-09-13T23:14:44.439Z,18.10
2018-09-13T23:17:12.736Z,18.10
2018-09-13T23:19:41.072Z,18.00
2018-09-13T23:22:10.604Z,18.00
2018-09-13T23:24:38.976Z,18.00
2018-09-13T23:27:09.046Z,18.00
2018-09-13T23:29:37.371Z,17.90
2018-09-13T23:32:05.712Z,17.90
2018-09-13T23:34:34.034Z,17.90
2018-09-13T23:37:02.308Z,17.80
2018-09-13T23:39:31.600Z,17.80
2018-09-13T23:41:59.551Z,17.80
2018-09-13T23:44:27.847Z,17.90
2018-09-13T23:46:56.124Z,17.80
2018-09-13T23:49:24.414Z,17.80
2018-09-13T23:51:52.699Z,17.80
2018-09-13T23:54:21.023Z,17.80
2018-09-13T23:56:49.303Z,17.80
2018-09-13T23:59:17.644Z,17.80
